Altadena, CA (91003)

9:55 AM PDT on October 24, 2014 (GMT -0700)
Country Club Area | Change Station
CLOSE
Current Station
Personal Weather Station
Location: Altadena, CA
Elevation: 1207 ft
Nearby Weather Stations

Elev 1207 ft 34.18 °N, 118.13 °W | Updated 11 minutes ago

Clear
Clear
75.9 °F
Feels Like 77 °F
N
0.0
Wind Variable Wind from ESE
Gusts 4.0 mph

Today
High -- | Low -- °F
--% Chance of Precip.
Yesterday
High -- | Low -- °F
Precip. -- in
7:05 AM 6:07 PM
New Moon, 1% visible
Pressure 29.98 in
Visibility 10.0 miles
Clouds Clear
Heat Index 77 °F
Dew Point 40 °F
Humidity 28%
Rainfall 0.00 in
Snow Depth Not available.
UV 3 out of 12
Pollen 4.10 out of 12
Ozone Good
PM2.5 Moderate
Flu Activity Sporadic
METAR KCQT 241647Z AUTO VRB03KT 10SM CLR 24/06 A2998 RMK AO2 SLP151 T02440056

More Conditions Fewer Conditions

Pressure 29.98 in
Visibility 10.0 miles
Clouds Clear
Heat Index 77 °F
Dew Point 40 °F
Humidity 28%
Rainfall 0.00 in
Snow Depth Not available.
UV 3 out of 12
Pollen 4.10 out of 12
Ozone Good
PM2.5 Moderate
Flu Activity Sporadic
METAR KCQT 241647Z AUTO VRB03KT 10SM CLR 24/06 A2998 RMK AO2 SLP151 T02440056

More Conditions Fewer Conditions

10-Day Weather Forecast

Almanac

Astronomy

Oct. 24, 2014 Rise Set
Actual Time 7:05 AM PDT 6:07 PM PDT
Civil Twilight 6:39 AM PDT 6:33 PM PDT
Nautical Twilight 6:10 AM PDT 7:02 PM PDT
Astronomical Twilight 5:41 AM PDT 7:31 PM PDT
Moon 7:47 AM PDT 6:53 PM PDT
Length of Visible Light 11h 53m
Length of Day
11h 02m
Tomorrow will be 1m 57s shorter.
New Moon, 1% of the Moon is Illuminated
Today
New Moon
Oct 30
First Quarter
Nov 6
Full
Nov 14
Last Quarter
Nov 22
New

Today's Extremes

State Highs State Lows

Community

WunderPhotos

Upload Photos

1,764,609 photos uploaded!

WunderBlogs® & News

By Dr. Jeff Masters
Director of Meteorology, Weather Underground
By Kari Strenfel
Meteorologist, Weather Underground
By Christopher C. Burt
Weather Historian, Weather Underground
October 24, 2014
October 24, 2014
October 24, 2014

Nearby

Air Quality

  Air Quality AQ Index Pollutant
Yesterday Moderate
OZONE
Yesterday Moderate
PM2.5
Current Moderate
PM2.5
Current Good
OZONE
Friday Good
PM10
Friday Moderate
OZONE
Friday Good
CO
Friday Good
NO2

Snow Depth

Station Depth Elevation
Virginia Lakes Ridge 0 in 9200 ft
Leavitt Lake 1 in 9400 ft
Leavitt Meadows 1 in 7200 ft
Sonora Pass 0 in 8800 ft
Summit Meadow 1 in 9122 ft

Earthquake Activity

City Distance Mag. Time & Date
Brea, California 22 miles 2.9 3:35 PM PDT
2014-10-23
Brea, California 22 miles 2.8 3:34 PM PDT
2014-10-23
Corona, California 34 miles 2.5 1:09 PM PDT
2014-10-23
Kettleman City, California 148 miles 2.5 9:08 AM PDT
2014-10-22
Minimum magnitude displayed is 2.5.

Coastal Water Temperatures

Place Temperature
Santa Monica Pier 68.0 °F
Los Angeles, CA 69.1 °F
La Jolla, CA 70.0 °F

Nearby Weather Stations